パリ/シャルル・ド・ゴール の空港の天気 - METARとTAF

シャルル・ド・ゴール国際空港(パリ) ( LFPG / CDG ) - フランス Paris
飛行場実況気象(Metar)
観測時間04/21 17:00 CEST (04/21 15:00 UTC)
風向・風速東北東 5m/s
視程10km以上
天気現象
なし
気温24℃
湿度21%
気圧1015hPa
METARLFPG 211500Z 06009KT 030V090 CAVOK 24/00 Q1015 NOSIG
過去の天気等 Google飛行場航空写真 Wunderground天気予報

過去48時間のMETAR

飛行場予報(TAF)
発表時間: 4/21 13:00 CEST (4/21 11:00 UTC)
予報対象時間: 21日14時 CEST ~ 22日20時 CEST
風向・風速東北東 5m/s
視程10km以上
なし
22日2時 CEST ~ 22日4時 CEST に徐々に
風向・風速不定 2m/s
22日8時 CEST ~ 22日10時 CEST に徐々に
風向・風速東北東 3m/s
TAF LFPG 211100Z 2112/2218 07010KT CAVOK TX25/2114Z TN12/2205Z
BECMG 2200/2202 VRB03KT
BECMG 2206/2208 07005KT